Time;durP1;ratioP1;P1;durP2;ratioP2;P2;SDS_P1;SDS_P2;PMS_P1;PMS_P2;Temp;Humidity;BMP_temperature;BMP_pressure;BME280_temperature;BME280_humidity;BME280_pressure;Samples;Min_cycle;Max_cycle;Signal;HPM_P1;HPM_P2
2022/07/15 00:00:31;;;;;;;3.55;2.20;;;24.40;99.90;;;;;;5070569;28;20021;-74
2022/07/15 00:03:01;;;;;;;2.97;2.05;;;24.30;99.90;;;;;;5084988;28;20335;-74
2022/07/15 00:05:27;;;;;;;3.22;2.10;;;24.30;99.90;;;;;;5090384;28;20020;-74
2022/07/15 00:07:53;;;;;;;2.05;1.90;;;24.10;99.90;;;;;;5090530;28;20534;-74
2022/07/15 00:10:20;;;;;;;2.30;1.90;;;24.10;99.90;;;;;;5089054;28;20513;-73
2022/07/15 00:12:47;;;;;;;1.92;1.83;;;24.10;99.90;;;;;;5081045;28;20031;-74
2022/07/15 00:15:14;;;;;;;3.05;1.88;;;24.00;99.90;;;;;;5071836;28;20555;-74
2022/07/15 00:17:41;;;;;;;3.20;2.03;;;24.00;99.90;;;;;;5068630;28;20028;-74
2022/07/15 00:20:09;;;;;;;5.10;1.83;;;23.80;99.90;;;;;;5069489;28;20091;-74
2022/07/15 00:22:36;;;;;;;3.13;1.92;;;23.70;99.90;;;;;;5069802;28;20028;-74
2022/07/15 00:25:02;;;;;;;2.17;1.88;;;23.70;99.90;;;;;;5069767;28;20056;-73
2022/07/15 00:27:28;;;;;;;2.67;2.10;;;23.70;99.90;;;;;;5069637;28;20021;-74
2022/07/15 00:29:54;;;;;;;4.57;2.15;;;23.90;99.90;;;;;;5073140;28;20035;-74
2022/07/15 00:32:20;;;;;;;5.97;2.20;;;23.80;99.90;;;;;;5082632;28;20056;-75
2022/07/15 00:34:46;;;;;;;3.38;2.13;;;23.80;99.90;;;;;;5093790;28;20035;-73
2022/07/15 00:37:12;;;;;;;2.33;1.90;;;23.80;99.90;;;;;;5092644;28;20020;-74
2022/07/15 00:39:38;;;;;;;3.75;2.35;;;23.70;99.90;;;;;;5093241;28;20474;-73
2022/07/15 00:42:04;;;;;;;2.63;2.25;;;23.70;99.90;;;;;;5092413;28;20028;-74
2022/07/15 00:44:30;;;;;;;1.88;1.63;;;23.70;99.90;;;;;;5093817;28;20024;-74
2022/07/15 00:46:56;;;;;;;1.88;1.77;;;23.70;99.90;;;;;;5092918;28;20370;-74
2022/07/15 00:49:22;;;;;;;6.82;2.28;;;23.80;99.90;;;;;;5093728;28;20024;-74
2022/07/15 00:51:51;;;;;;;2.45;2.20;;;23.90;99.90;;;;;;5097401;28;20170;-74
2022/07/15 00:54:23;;;;;;;3.15;1.65;;;23.70;99.90;;;;;;5105092;28;20020;-73
2022/07/15 00:56:52;;;;;;;3.05;1.70;;;23.70;99.90;;;;;;5107146;28;20098;-74
2022/07/15 00:59:21;;;;;;;6.32;2.92;;;23.60;99.90;;;;;;5104826;28;20094;-74
2022/07/15 01:01:47;;;;;;;3.17;1.55;;;23.70;99.90;;;;;;5091467;28;20478;-74
2022/07/15 01:04:13;;;;;;;3.97;2.30;;;23.60;99.90;;;;;;5092143;28;20027;-74
2022/07/15 01:06:40;;;;;;;3.10;1.67;;;23.50;99.90;;;;;;5093520;28;20023;-73
2022/07/15 01:09:06;;;;;;;5.35;2.22;;;23.50;99.90;;;;;;5091849;28;20027;-74
2022/07/15 01:11:32;;;;;;;2.53;1.90;;;23.70;99.90;;;;;;5093197;28;20020;-74
2022/07/15 01:13:59;;;;;;;3.90;1.63;;;23.60;99.90;;;;;;5091934;28;20027;-73
2022/07/15 01:16:26;;;;;;;4.35;2.25;;;23.40;99.90;;;;;;5093517;28;20469;-75
2022/07/15 01:18:52;;;;;;;2.28;2.08;;;23.30;99.90;;;;;;5092774;28;20062;-74
2022/07/15 01:21:18;;;;;;;2.72;1.83;;;23.40;99.90;;;;;;5091525;28;20032;-74
2022/07/15 01:23:44;;;;;;;5.75;2.28;;;23.20;99.90;;;;;;5091792;28;20481;-74
2022/07/15 01:26:11;;;;;;;6.35;1.90;;;23.30;99.90;;;;;;5091256;28;20035;-73
2022/07/15 01:28:37;;;;;;;2.20;2.05;;;23.40;99.90;;;;;;5093012;28;20385;-74
2022/07/15 01:31:04;;;;;;;2.97;1.65;;;23.50;99.90;;;;;;5092576;28;20103;-73
2022/07/15 01:33:31;;;;;;;2.22;1.77;;;23.30;99.90;;;;;;5091639;28;20024;-74
2022/07/15 01:35:59;;;;;;;2.92;1.60;;;23.30;99.90;;;;;;5076706;28;20490;-73
2022/07/15 01:38:25;;;;;;;3.95;1.65;;;23.40;99.90;;;;;;5072896;28;20111;-74
2022/07/15 01:40:51;;;;;;;4.38;1.73;;;23.40;99.90;;;;;;5070962;28;20049;-74
2022/07/15 01:43:17;;;;;;;2.95;2.00;;;23.40;99.90;;;;;;5072656;28;20029;-73
2022/07/15 01:45:44;;;;;;;5.80;2.13;;;23.40;99.90;;;;;;5071554;28;20390;-74
2022/07/15 01:49:21;;;;;;;2.78;2.00;;;23.50;99.90;;;;;;5072583;28;20036;-73
2022/07/15 01:50:58;;;;;;;2.65;2.03;;;23.30;99.90;;;;;;5071611;28;20031;-74
2022/07/15 01:53:25;;;;;;;1.83;1.67;;;23.30;99.90;;;;;;5072045;28;20027;-73
2022/07/15 01:55:51;;;;;;;2.20;2.00;;;23.30;99.90;;;;;;5072201;28;20048;-76
2022/07/15 01:58:18;;;;;;;4.13;2.63;;;23.10;99.90;;;;;;5072084;28;20024;-75
2022/07/15 02:00:44;;;;;;;3.08;2.60;;;23.10;99.90;;;;;;5072984;28;20028;-72
2022/07/15 02:03:10;;;;;;;2.17;2.00;;;23.30;99.90;;;;;;5090723;28;20478;-73
2022/07/15 02:05:37;;;;;;;2.95;1.92;;;23.40;99.90;;;;;;5070523;28;20128;-75
2022/07/15 02:08:04;;;;;;;2.97;2.67;;;23.40;99.90;;;;;;5070169;28;20052;-74
2022/07/15 02:10:39;;;;;;;1.90;1.70;;;23.40;99.90;;;;;;5070081;28;20051;-73
2022/07/15 02:13:13;;;;;;;2.85;1.50;;;23.40;99.90;;;;;;5075245;28;20066;-73
2022/07/15 02:15:40;;;;;;;2.30;2.10;;;23.10;99.90;;;;;;5073421;28;20456;-73
2022/07/15 02:18:06;;;;;;;6.47;2.17;;;23.00;99.90;;;;;;5073908;28;20092;-73
2022/07/15 02:20:32;;;;;;;2.05;1.95;;;23.10;99.90;;;;;;5073147;28;20502;-72
2022/07/15 02:22:58;;;;;;;2.28;2.08;;;23.10;99.90;;;;;;5078109;28;20020;-72
2022/07/15 02:25:28;;;;;;;2.78;2.28;;;23.20;99.90;;;;;;5082575;28;20336;-72
2022/07/15 02:27:59;;;;;;;1.92;1.52;;;23.00;99.90;;;;;;5089874;28;20016;-72
2022/07/15 02:30:31;;;;;;;1.85;1.75;;;23.00;99.90;;;;;;5092131;28;20028;-72
2022/07/15 02:32:57;;;;;;;5.78;2.50;;;23.00;99.90;;;;;;5098429;28;20582;-72
2022/07/15 02:35:23;;;;;;;5.22;1.85;;;23.20;99.90;;;;;;5087781;28;20082;-72
2022/07/15 02:37:49;;;;;;;2.25;2.03;;;23.30;99.90;;;;;;5085873;28;20115;-73
2022/07/15 02:40:14;;;;;;;4.07;2.92;;;23.30;99.90;;;;;;5072318;28;20113;-73
2022/07/15 02:42:50;;;;;;;2.00;1.90;;;23.20;99.90;;;;;;5071758;28;20031;-73
2022/07/15 02:45:17;;;;;;;5.53;1.98;;;23.20;99.90;;;;;;5072847;28;20036;-71
2022/07/15 02:47:43;;;;;;;2.55;1.88;;;23.30;99.90;;;;;;5072678;28;20021;-73
2022/07/15 02:50:09;;;;;;;2.15;2.00;;;23.30;99.90;;;;;;5070933;28;20043;-73
2022/07/15 02:52:35;;;;;;;1.75;1.65;;;23.30;99.90;;;;;;5070524;28;20052;-73
2022/07/15 02:55:01;;;;;;;4.35;2.13;;;23.10;99.90;;;;;;5070881;28;20048;-73
2022/07/15 02:57:27;;;;;;;2.08;1.98;;;22.90;99.90;;;;;;5070660;28;20028;-72
2022/07/15 02:59:53;;;;;;;2.55;2.00;;;23.00;99.90;;;;;;5070194;28;20024;-73
2022/07/15 03:02:19;;;;;;;2.22;2.13;;;23.20;99.90;;;;;;5075281;28;20020;-72
2022/07/15 03:04:45;;;;;;;4.05;2.15;;;23.00;99.90;;;;;;5071613;28;20043;-73
2022/07/15 03:07:12;;;;;;;3.22;2.08;;;22.90;99.90;;;;;;5071480;28;20048;-73
2022/07/15 03:09:38;;;;;;;4.30;1.73;;;22.90;99.90;;;;;;5071344;28;20028;-72
2022/07/15 03:12:04;;;;;;;3.42;2.03;;;22.80;99.90;;;;;;5071917;28;20085;-72
2022/07/15 03:14:29;;;;;;;3.42;2.35;;;23.00;99.90;;;;;;5071338;28;20040;-73
2022/07/15 03:16:55;;;;;;;2.25;2.03;;;23.00;99.90;;;;;;5070432;28;20092;-72
2022/07/15 03:19:21;;;;;;;4.07;2.13;;;23.10;99.90;;;;;;5071476;28;20025;-72
2022/07/15 03:21:50;;;;;;;2.33;1.75;;;23.30;99.90;;;;;;5072239;28;20028;-72
2022/07/15 03:24:17;;;;;;;5.85;2.75;;;23.30;99.90;;;;;;5071369;28;20086;-73
2022/07/15 03:26:42;;;;;;;7.30;2.47;;;23.30;99.90;;;;;;5072396;28;20017;-73
2022/07/15 03:29:09;;;;;;;2.40;2.20;;;23.20;99.90;;;;;;5070842;28;20309;-73
2022/07/15 03:31:35;;;;;;;4.20;2.63;;;23.20;99.90;;;;;;5069903;28;20123;-72
2022/07/15 03:34:01;;;;;;;3.08;2.30;;;23.30;99.90;;;;;;5086097;28;20055;-73
2022/07/15 03:36:27;;;;;;;3.25;1.80;;;23.20;99.90;;;;;;5078142;28;20051;-73
2022/07/15 03:38:54;;;;;;;2.53;2.33;;;23.20;99.90;;;;;;5071050;28;20021;-73
2022/07/15 03:41:21;;;;;;;4.45;2.65;;;23.10;99.90;;;;;;5070555;28;20036;-73
2022/07/15 03:43:46;;;;;;;2.42;2.22;;;23.00;99.90;;;;;;5069741;28;20462;-73
2022/07/15 03:46:16;;;;;;;2.60;2.03;;;22.90;99.90;;;;;;5069913;28;20035;-73
2022/07/15 03:48:42;;;;;;;2.25;1.90;;;23.00;99.90;;;;;;5070686;28;20029;-73
2022/07/15 03:51:07;;;;;;;3.60;2.33;;;23.00;99.90;;;;;;5071661;28;20081;-73
2022/07/15 03:53:33;;;;;;;1.90;1.80;;;23.10;99.90;;;;;;5072517;28;20067;-73
2022/07/15 03:55:59;;;;;;;7.78;1.95;;;23.20;99.90;;;;;;5072927;28;20028;-74
2022/07/15 03:58:25;;;;;;;7.75;1.95;;;23.10;99.90;;;;;;5075048;28;20020;-73
2022/07/15 04:00:51;;;;;;;1.52;1.42;;;23.00;99.90;;;;;;5070164;28;20035;-74
2022/07/15 04:03:17;;;;;;;1.73;1.63;;;23.10;99.90;;;;;;5078007;28;20068;-74
2022/07/15 04:05:43;;;;;;;2.50;1.52;;;23.00;99.90;;;;;;5094834;28;20543;-74
2022/07/15 04:08:09;;;;;;;4.53;2.35;;;23.00;99.90;;;;;;5094960;28;20024;-73
2022/07/15 04:10:35;;;;;;;4.47;2.03;;;23.10;99.90;;;;;;5093095;28;20032;-72
2022/07/15 04:13:01;;;;;;;2.78;1.90;;;23.10;99.90;;;;;;5093643;28;20477;-73
2022/07/15 04:15:28;;;;;;;1.92;1.63;;;23.10;99.90;;;;;;5074530;28;20032;-73
2022/07/15 04:17:54;;;;;;;2.47;1.88;;;23.10;99.90;;;;;;5074043;28;20116;-72
2022/07/15 04:20:21;;;;;;;2.55;1.80;;;23.10;99.90;;;;;;5074855;28;20139;-73
2022/07/15 04:22:46;;;;;;;1.80;1.70;;;23.10;99.90;;;;;;5073677;28;20020;-73
2022/07/15 04:25:16;;;;;;;7.25;2.75;;;23.20;99.90;;;;;;5074757;28;20485;-73
2022/07/15 04:27:43;;;;;;;5.82;2.15;;;23.30;99.90;;;;;;5073985;28;20067;-73
2022/07/15 04:30:10;;;;;;;6.15;2.40;;;23.40;99.90;;;;;;5074536;28;20037;-73
2022/07/15 04:32:36;;;;;;;2.15;1.60;;;23.40;99.90;;;;;;5074326;28;20024;-72
2022/07/15 04:35:02;;;;;;;3.45;1.65;;;23.50;99.90;;;;;;5078999;28;20124;-73
2022/07/15 04:37:29;;;;;;;2.85;1.40;;;23.60;99.90;;;;;;5073336;28;20460;-72
2022/07/15 04:39:55;;;;;;;1.90;1.80;;;23.60;99.90;;;;;;5074466;28;20020;-72
2022/07/15 04:42:21;;;;;;;2.72;1.80;;;23.60;99.90;;;;;;5073584;28;20497;-73
2022/07/15 04:44:47;;;;;;;3.92;1.92;;;23.60;99.90;;;;;;5073655;28;20111;-71
2022/07/15 04:47:13;;;;;;;6.45;2.38;;;23.60;99.90;;;;;;5074194;28;20551;-73
2022/07/15 04:52:24;;;;;;;4.45;2.03;;;23.70;99.90;;;;;;5074824;28;20031;-72
2022/07/15 04:54:50;;;;;;;7.55;2.00;;;23.70;99.90;;;;;;5074221;28;20031;-72
2022/07/15 04:57:16;;;;;;;3.67;1.85;;;23.70;99.90;;;;;;5075626;28;20025;-74
2022/07/15 04:59:42;;;;;;;2.00;1.80;;;23.80;99.90;;;;;;5074676;28;20028;-73
2022/07/15 05:02:08;;;;;;;4.93;1.92;;;23.80;99.90;;;;;;5075011;28;20450;-73
2022/07/15 05:04:34;;;;;;;3.47;1.92;;;23.90;99.90;;;;;;5076401;28;20016;-74
2022/07/15 05:06:59;;;;;;;9.20;1.95;;;24.00;99.90;;;;;;5073195;28;20024;-73
2022/07/15 05:09:25;;;;;;;6.60;1.83;;;24.00;99.90;;;;;;5075181;28;20024;-72
2022/07/15 05:11:51;;;;;;;5.93;1.80;;;24.10;99.90;;;;;;5074975;28;20039;-73
2022/07/15 05:14:17;;;;;;;4.07;1.65;;;24.20;99.90;;;;;;5074021;28;20024;-73
2022/07/15 05:16:42;;;;;;;2.15;1.65;;;24.20;99.90;;;;;;5074836;28;20381;-74
2022/07/15 05:19:08;;;;;;;3.00;2.00;;;24.30;99.90;;;;;;5074338;28;20020;-72
2022/07/15 05:21:34;;;;;;;3.33;2.17;;;24.40;99.90;;;;;;5075093;28;20029;-73
2022/07/15 05:24:01;;;;;;;1.77;1.65;;;24.40;99.90;;;;;;5073461;28;20033;-73
2022/07/15 05:26:27;;;;;;;5.10;2.25;;;24.50;99.90;;;;;;5073597;28;20383;-73
2022/07/15 05:28:52;;;;;;;4.82;2.10;;;24.50;99.90;;;;;;5073749;28;20170;-73
2022/07/15 05:31:18;;;;;;;1.85;1.75;;;24.60;99.90;;;;;;5075199;28;20028;-73
2022/07/15 05:33:44;;;;;;;1.63;1.52;;;24.60;99.90;;;;;;5073890;28;20027;-73
2022/07/15 05:36:14;;;;;;;2.28;2.08;;;24.70;99.90;;;;;;5078586;28;20039;-73
2022/07/15 05:38:41;;;;;;;2.90;1.67;;;24.80;99.90;;;;;;5072397;28;20040;-72
2022/07/15 05:41:08;;;;;;;11.00;2.38;;;24.90;99.90;;;;;;5073483;28;20483;-73
2022/07/15 05:43:35;;;;;;;3.53;2.42;;;25.00;99.90;;;;;;5074314;28;20383;-73
2022/07/15 05:46:01;;;;;;;2.53;2.25;;;25.00;99.90;;;;;;5072365;28;20032;-72
2022/07/15 05:48:26;;;;;;;5.13;1.70;;;25.00;99.90;;;;;;5074002;28;20502;-73
2022/07/15 05:50:52;;;;;;;4.88;1.73;;;25.10;99.90;;;;;;5073116;28;20058;-72
2022/07/15 05:53:18;;;;;;;3.90;1.67;;;25.20;99.90;;;;;;5071985;28;20040;-72
2022/07/15 05:55:44;;;;;;;4.50;1.92;;;25.30;99.90;;;;;;5074086;28;20075;-72
2022/07/15 05:58:10;;;;;;;6.18;1.90;;;25.40;99.90;;;;;;5073527;28;20040;-72
2022/07/15 06:00:37;;;;;;;5.05;1.80;;;25.50;99.90;;;;;;5073517;28;20025;-73
2022/07/15 06:03:04;;;;;;;7.93;1.88;;;25.60;99.90;;;;;;5073391;28;20032;-73
2022/07/15 06:05:30;;;;;;;4.13;3.72;;;25.70;99.90;;;;;;5076285;28;20371;-73
2022/07/15 06:07:56;;;;;;;5.07;3.15;;;25.80;99.90;;;;;;5093840;28;20016;-73
2022/07/15 06:10:22;;;;;;;3.25;2.20;;;25.90;99.90;;;;;;5093347;28;20048;-73
2022/07/15 06:12:48;;;;;;;7.30;3.40;;;26.10;99.90;;;;;;5094289;28;20081;-73
2022/07/15 06:15:14;;;;;;;9.02;4.65;;;26.20;99.90;;;;;;5083327;28;20035;-72
2022/07/15 06:17:40;;;;;;;5.78;3.97;;;26.30;99.90;;;;;;5086197;28;20039;-74
2022/07/15 06:20:07;;;;;;;8.52;2.05;;;26.40;99.90;;;;;;5091513;28;20089;-72
2022/07/15 06:22:32;;;;;;;4.82;2.10;;;26.50;99.90;;;;;;5090592;28;20031;-74
2022/07/15 06:24:58;;;;;;;9.25;3.40;;;26.60;99.90;;;;;;5090886;28;20024;-72
2022/07/15 06:27:24;;;;;;;8.00;3.70;;;26.70;99.90;;;;;;5089967;28;20677;-73
2022/07/15 06:29:51;;;;;;;4.47;2.30;;;26.80;99.90;;;;;;5089704;28;20030;-72
2022/07/15 06:32:17;;;;;;;3.83;2.20;;;27.00;99.90;;;;;;5091342;28;20024;-72
2022/07/15 06:34:44;;;;;;;7.50;1.73;;;27.20;99.90;;;;;;5091085;28;20462;-74
2022/07/15 06:37:10;;;;;;;9.48;4.55;;;27.30;99.90;;;;;;5088663;28;20032;-73
2022/07/15 06:39:36;;;;;;;11.13;4.97;;;27.30;99.90;;;;;;5082292;28;20024;-75
2022/07/15 06:42:02;;;;;;;10.40;5.32;;;27.40;99.90;;;;;;5091019;28;20020;-75
2022/07/15 06:44:28;;;;;;;4.53;2.40;;;27.50;99.90;;;;;;5089941;28;20016;-74
2022/07/15 06:46:54;;;;;;;4.82;3.53;;;27.60;99.90;;;;;;5091176;28;20024;-75
2022/07/15 06:49:21;;;;;;;5.60;2.45;;;27.60;99.90;;;;;;5090937;28;20027;-75
2022/07/15 06:51:47;;;;;;;4.53;2.38;;;27.70;99.90;;;;;;5089349;28;20393;-75
2022/07/15 06:54:12;;;;;;;6.38;2.00;;;27.80;99.90;;;;;;5091215;28;20020;-74
2022/07/15 06:56:39;;;;;;;7.57;2.30;;;27.90;99.90;;;;;;5090879;28;20020;-74
2022/07/15 06:59:05;;;;;;;2.88;1.83;;;28.00;99.90;;;;;;5089500;28;20027;-73
2022/07/15 07:01:32;;;;;;;3.28;1.90;;;28.10;99.90;;;;;;5091084;28;20020;-74
2022/07/15 07:03:58;;;;;;;11.52;2.72;;;28.20;99.90;;;;;;5091621;28;20024;-74
2022/07/15 07:06:25;;;;;;;8.25;2.22;;;28.40;99.90;;;;;;5089128;28;20093;-75
2022/07/15 07:08:52;;;;;;;5.65;2.50;;;28.50;99.90;;;;;;5085179;28;20082;-74
2022/07/15 07:11:18;;;;;;;10.38;2.63;;;28.70;99.90;;;;;;5076169;28;20052;-75
2022/07/15 07:13:45;;;;;;;2.60;2.03;;;28.80;99.90;;;;;;5079110;28;20051;-75
2022/07/15 07:16:12;;;;;;;4.80;3.03;;;28.90;99.90;;;;;;5078529;28;20295;-73
2022/07/15 07:18:37;;;;;;;9.38;2.78;;;29.00;99.90;;;;;;5080042;28;20020;-77
2022/07/15 07:21:04;;;;;;;3.90;3.08;;;29.10;99.90;;;;;;5077886;28;20513;-74
2022/07/15 07:23:30;;;;;;;2.58;2.38;;;29.20;99.90;;;;;;5080106;28;20095;-72
2022/07/15 07:25:57;;;;;;;7.10;2.83;;;29.30;99.90;;;;;;5080941;28;20043;-74
2022/07/15 07:28:23;;;;;;;6.85;2.65;;;29.50;99.90;;;;;;5082948;28;20475;-76
2022/07/15 07:30:54;;;;;;;9.52;2.53;;;29.70;99.90;;;;;;5082252;28;20107;-73
2022/07/15 07:33:20;;;;;;;8.15;2.75;;;29.80;99.90;;;;;;5080782;28;20023;-74
2022/07/15 07:35:46;;;;;;;19.80;4.13;;;29.90;99.90;;;;;;5084910;28;20021;-76
2022/07/15 07:38:12;;;;;;;11.98;4.65;;;30.00;99.90;;;;;;5095259;28;20042;-75
2022/07/15 07:40:38;;;;;;;13.43;3.22;;;30.00;99.90;;;;;;5093203;28;20035;-74
2022/07/15 07:43:03;;;;;;;5.95;1.88;;;30.00;99.90;;;;;;5094222;28;20490;-74
2022/07/15 07:45:29;;;;;;;7.72;1.98;;;29.90;99.90;;;;;;5092325;28;20052;-75
2022/07/15 07:47:56;;;;;;;57.25;7.05;;;29.70;99.90;;;;;;5092448;28;20063;-75
2022/07/15 07:50:22;;;;;;;6.68;2.72;;;29.40;99.90;;;;;;5092166;28;20032;-75
2022/07/15 07:52:48;;;;;;;22.10;4.65;;;29.20;99.90;;;;;;5092268;28;20020;-75
2022/07/15 07:55:17;;;;;;;14.52;3.53;;;29.00;99.90;;;;;;5091768;28;20032;-73
2022/07/15 07:57:53;;;;;;;10.10;3.15;;;28.80;99.90;;;;;;5092692;28;20547;-74
2022/07/15 08:00:20;;;;;;;14.38;3.10;;;28.50;99.90;;;;;;5091090;28;20070;-74
2022/07/15 08:02:47;;;;;;;11.18;3.53;;;28.40;99.90;;;;;;5092927;28;20023;-74
2022/07/15 08:05:14;;;;;;;8.32;3.22;;;28.20;99.90;;;;;;5093396;28;20103;-74
2022/07/15 08:07:41;;;;;;;9.18;2.78;;;28.20;99.90;;;;;;5089569;28;20334;-75
2022/07/15 08:10:09;;;;;;;9.27;2.40;;;28.30;99.90;;;;;;5071528;28;20123;-75
2022/07/15 08:12:37;;;;;;;8.15;2.25;;;28.30;99.90;;;;;;5069979;28;20025;-75
2022/07/15 08:15:06;;;;;;;10.75;3.15;;;28.30;99.90;;;;;;5069543;28;20024;-74
2022/07/15 08:17:32;;;;;;;9.85;3.20;;;28.30;99.90;;;;;;5067867;28;20029;-75
2022/07/15 08:19:57;;;;;;;12.95;2.95;;;28.30;99.90;;;;;;5069768;28;20025;-74
2022/07/15 08:22:23;;;;;;;5.90;2.83;;;28.10;99.90;;;;;;5068827;28;20017;-74
2022/07/15 08:24:49;;;;;;;7.32;3.35;;;27.90;99.90;;;;;;5068786;28;20082;-76
2022/07/15 08:27:16;;;;;;;5.85;2.67;;;27.80;99.90;;;;;;5070283;28;20042;-74
2022/07/15 08:29:43;;;;;;;8.27;2.50;;;27.70;99.90;;;;;;5068285;28;20024;-74
2022/07/15 08:32:08;;;;;;;15.73;2.35;;;27.80;99.90;;;;;;5069830;28;20025;-75
2022/07/15 08:34:34;;;;;;;11.18;3.40;;;27.60;99.90;;;;;;5068515;28;20036;-74
2022/07/15 08:37:00;;;;;;;4.90;2.30;;;27.60;99.90;;;;;;5074742;28;20033;-74
2022/07/15 08:39:26;;;;;;;8.25;2.40;;;27.50;99.90;;;;;;5076753;28;20017;-73
2022/07/15 08:41:52;;;;;;;3.75;2.00;;;27.40;99.90;;;;;;5070707;28;20029;-76
2022/07/15 08:44:18;;;;;;;5.82;2.88;;;27.30;99.90;;;;;;5069705;28;20032;-76
2022/07/15 08:46:48;;;;;;;5.25;2.33;;;27.40;99.90;;;;;;5069069;28;20124;-75
2022/07/15 08:49:16;;;;;;;14.88;3.25;;;27.40;99.90;;;;;;5069839;28;20021;-74
2022/07/15 08:51:45;;;;;;;8.48;2.75;;;27.60;99.90;;;;;;5073810;28;20059;-74
2022/07/15 08:54:11;;;;;;;10.98;2.78;;;27.60;99.90;;;;;;5072527;28;20073;-76
2022/07/15 08:56:37;;;;;;;16.13;3.35;;;27.70;99.90;;;;;;5072675;28;20020;-76
2022/07/15 08:59:05;;;;;;;4.82;2.42;;;27.70;99.90;;;;;;5072029;28;20501;-76
2022/07/15 09:01:32;;;;;;;8.20;2.47;;;27.50;99.90;;;;;;5072236;28;20025;-74
2022/07/15 09:03:58;;;;;;;6.80;2.45;;;27.50;99.90;;;;;;5073932;28;20021;-75
2022/07/15 09:06:45;;;;;;;9.48;3.33;;;27.70;99.90;;;;;;5073932;28;20032;-76
2022/07/15 09:09:26;;;;;;;3.08;2.45;;;27.70;99.90;;;;;;5103594;28;20103;-74
2022/07/15 09:12:09;;;;;;;5.53;2.70;;;27.70;99.90;;;;;;5101892;28;20079;-74
2022/07/15 09:14:39;;;;;;;6.18;2.72;;;27.80;99.90;;;;;;5102389;28;20024;-74
2022/07/15 09:17:11;;;;;;;3.97;2.75;;;27.90;99.90;;;;;;5104974;28;20057;-75
2022/07/15 09:19:58;;;;;;;14.55;3.97;;;28.10;99.90;;;;;;5104283;28;20524;-76
2022/07/15 09:22:26;;;;;;;17.80;3.95;;;28.10;99.90;;;;;;5098168;28;20044;-74
2022/07/15 09:25:10;;;;;;;6.47;2.50;;;28.20;99.90;;;;;;5094025;28;20466;-75
2022/07/15 09:27:39;;;;;;;10.57;3.35;;;28.40;99.90;;;;;;5095127;28;20035;-76
2022/07/15 09:33:35;;;;;;;3.92;2.25;;;28.70;99.90;;;;;;5093428;28;20161;-76
2022/07/15 09:36:21;;;;;;;7.68;2.47;;;28.70;99.90;;;;;;5092091;28;20036;-74
2022/07/15 09:38:55;;;;;;;5.32;2.45;;;28.80;99.90;;;;;;5079710;28;20115;-76
2022/07/15 09:41:33;;;;;;;3.70;1.98;;;28.90;99.90;;;;;;5092455;28;20103;-76
2022/07/15 09:44:05;;;;;;;8.32;1.77;;;29.00;99.90;;;;;;5092886;28;20028;-75
2022/07/15 09:46:45;;;;;;;4.45;1.88;;;29.20;99.90;;;;;;5091640;28;20625;-75
2022/07/15 09:49:12;;;;;;;11.07;3.00;;;29.40;99.90;;;;;;5091234;28;20032;-75
2022/07/15 09:51:50;;;;;;;5.50;2.40;;;29.40;99.90;;;;;;5091295;28;20024;-73
2022/07/15 09:54:17;;;;;;;5.43;2.25;;;29.30;99.90;;;;;;5092719;28;20020;-76
2022/07/15 09:56:45;;;;;;;9.90;2.22;;;29.20;99.90;;;;;;5091206;28;20630;-75
2022/07/15 09:59:11;;;;;;;14.65;2.67;;;29.30;99.90;;;;;;5092114;28;20053;-77
2022/07/15 10:01:37;;;;;;;6.78;2.95;;;29.30;99.90;;;;;;5082367;28;20024;-75
2022/07/15 10:04:06;;;;;;;8.48;2.65;;;29.40;99.90;;;;;;5070402;28;20132;-76
2022/07/15 10:06:35;;;;;;;3.67;2.17;;;29.50;99.90;;;;;;5071888;28;20021;-76
2022/07/15 10:09:01;;;;;;;5.20;1.92;;;29.50;99.90;;;;;;5091514;28;20051;-77
2022/07/15 10:11:27;;;;;;;2.42;2.25;;;29.60;99.90;;;;;;5071946;28;20056;-75
2022/07/15 10:14:15;;;;;;;2.28;1.80;;;29.60;99.90;;;;;;5071667;28;20028;-75
2022/07/15 10:17:21;;;;;;;4.28;2.00;;;29.60;99.90;;;;;;5071440;28;20033;-74
2022/07/15 10:19:55;;;;;;;4.53;1.45;;;29.50;99.90;;;;;;5071340;28;20107;-71
2022/07/15 10:22:52;;;;;;;1.48;1.25;;;29.30;99.90;;;;;;5070200;28;20107;-71
2022/07/15 10:25:24;;;;;;;3.40;1.80;;;29.40;99.90;;;;;;5071900;28;20021;-71
2022/07/15 10:28:13;;;;;;;5.28;1.75;;;29.50;99.90;;;;;;5071740;28;20114;-71
2022/07/15 10:30:39;;;;;;;3.53;1.35;;;29.40;99.90;;;;;;5070095;28;20040;-71
2022/07/15 10:33:18;;;;;;;1.60;1.50;;;29.20;99.90;;;;;;5070451;28;20031;-70
2022/07/15 10:35:50;;;;;;;3.30;1.35;;;29.30;99.90;;;;;;5069982;28;20502;-71
2022/07/15 10:38:26;;;;;;;2.67;1.67;;;29.30;99.90;;;;;;5080448;28;20478;-73
2022/07/15 10:40:56;;;;;;;4.40;1.38;;;29.10;99.90;;;;;;5089753;28;20020;-72
2022/07/15 10:43:43;;;;;;;4.28;1.23;;;29.40;99.90;;;;;;5091581;28;20027;-74
2022/07/15 10:46:20;;;;;;;2.92;2.38;;;29.50;99.90;;;;;;5091315;28;20077;-71
2022/07/15 10:48:49;;;;;;;4.20;1.88;;;29.60;99.90;;;;;;5091502;28;20051;-70
2022/07/15 10:51:37;;;;;;;2.28;1.55;;;29.80;99.90;;;;;;5090063;28;20051;-71
2022/07/15 10:54:35;;;;;;;4.15;1.45;;;29.80;99.90;;;;;;5089958;28;20028;-74
2022/07/15 10:57:01;;;;;;;7.15;2.00;;;29.70;99.90;;;;;;5080240;28;20465;-72
2022/07/15 10:59:35;;;;;;;5.53;1.42;;;29.50;99.90;;;;;;5093090;28;20044;-71
2022/07/15 11:02:02;;;;;;;3.60;0.90;;;29.60;99.90;;;;;;5091992;28;20027;-70
2022/07/15 11:04:31;;;;;;;6.10;1.13;;;29.60;99.90;;;;;;5091535;28;20373;-71
2022/07/15 11:07:09;;;;;;;1.88;1.08;;;29.60;99.90;;;;;;5090796;28;20016;-70
2022/07/15 11:10:13;;;;;;;4.43;1.50;;;29.50;99.90;;;;;;5083907;28;20099;-71
2022/07/15 11:12:51;;;;;;;1.05;0.95;;;29.30;99.30;;;;;;5092114;28;20024;-70
2022/07/15 11:15:25;;;;;;;2.10;1.20;;;29.30;99.90;;;;;;5092844;28;20044;-70
2022/07/15 11:17:55;;;;;;;1.58;1.30;;;29.10;99.90;;;;;;5091780;28;20020;-72
2022/07/15 11:20:23;;;;;;;1.92;1.13;;;29.00;99.90;;;;;;5090971;28;20023;-69
2022/07/15 11:22:52;;;;;;;3.08;1.75;;;28.90;99.90;;;;;;5092775;28;20020;-69
2022/07/15 11:25:20;;;;;;;4.05;1.67;;;28.90;99.90;;;;;;5090834;28;20551;-74
2022/07/15 11:28:09;;;;;;;5.63;1.90;;;29.00;99.90;;;;;;5092209;28;20471;-74
2022/07/15 11:30:42;;;;;;;1.60;1.20;;;29.20;99.90;;;;;;5091349;28;20035;-74
2022/07/15 11:33:14;;;;;;;1.45;1.17;;;29.00;99.90;;;;;;5090435;28;20085;-74
2022/07/15 11:35:44;;;;;;;1.67;1.40;;;29.00;99.90;;;;;;5090320;28;20123;-74
2022/07/15 11:38:10;;;;;;;3.10;2.47;;;29.00;99.90;;;;;;5090135;28;20027;-74
2022/07/15 11:46:12;;;;;;;4.35;1.58;;;28.90;99.90;;;;;;5090880;28;20439;-74
2022/07/15 11:48:40;;;;;;;1.73;1.60;;;28.90;99.90;;;;;;5091302;28;20073;-73
2022/07/15 11:51:07;;;;;;;1.83;1.70;;;29.10;99.90;;;;;;5091676;28;20035;-74
2022/07/15 11:53:42;;;;;;;1.67;1.58;;;29.10;99.90;;;;;;5090063;28;20034;-73
2022/07/15 11:56:10;;;;;;;1.30;1.10;;;29.20;99.90;;;;;;5091837;28;20020;-73
2022/07/15 11:58:45;;;;;;;2.10;1.58;;;29.20;99.90;;;;;;5090412;28;20020;-74
2022/07/15 12:01:17;;;;;;;3.65;1.33;;;29.40;99.90;;;;;;5083113;28;20431;-74
2022/07/15 12:03:46;;;;;;;1.73;1.42;;;29.20;99.90;;;;;;5081511;28;20028;-73
2022/07/15 12:06:14;;;;;;;1.35;1.25;;;29.20;99.90;;;;;;5092033;28;20043;-73
2022/07/15 12:08:44;;;;;;;1.67;1.42;;;29.10;99.90;;;;;;5091806;28;20032;-74
2022/07/15 12:11:17;;;;;;;3.63;1.52;;;29.20;99.90;;;;;;5086247;28;20120;-74
2022/07/15 12:13:50;;;;;;;1.48;1.30;;;29.50;99.90;;;;;;5092881;28;20051;-74
2022/07/15 12:16:25;;;;;;;2.17;1.67;;;29.50;99.90;;;;;;5090503;28;20054;-74
2022/07/15 12:18:57;;;;;;;1.92;1.73;;;29.20;99.90;;;;;;5093567;28;20051;-73
2022/07/15 12:21:23;;;;;;;3.33;1.27;;;29.30;99.90;;;;;;5095864;28;20052;-74
2022/07/15 12:24:00;;;;;;;2.60;1.15;;;29.20;99.90;;;;;;5091402;28;20405;-74
2022/07/15 12:26:25;;;;;;;2.63;1.30;;;29.30;99.90;;;;;;5095233;28;20020;-73
2022/07/15 12:28:56;;;;;;;1.80;1.50;;;29.30;99.90;;;;;;5090682;28;20047;-73
2022/07/15 12:31:31;;;;;;;2.63;1.35;;;29.40;99.90;;;;;;5074070;28;20032;-73
2022/07/15 12:33:57;;;;;;;3.17;1.25;;;29.40;99.90;;;;;;5076380;28;20043;-73
2022/07/15 12:36:26;;;;;;;1.23;1.08;;;29.50;99.90;;;;;;5075431;28;20038;-74
2022/07/15 12:39:10;;;;;;;4.32;1.10;;;29.40;99.90;;;;;;5075128;28;20056;-74
2022/07/15 12:41:38;;;;;;;3.15;0.95;;;29.50;99.90;;;;;;5075228;28;20021;-75
2022/07/15 12:44:05;;;;;;;7.20;1.48;;;29.30;99.90;;;;;;5075571;28;20089;-73
2022/07/15 12:47:10;;;;;;;5.22;1.20;;;29.40;99.90;;;;;;5076661;28;20031;-75
2022/07/15 12:49:43;;;;;;;1.13;1.02;;;29.60;99.90;;;;;;5075900;28;20386;-75
2022/07/15 12:52:21;;;;;;;1.08;0.88;;;29.40;99.90;;;;;;5076649;28;20016;-74
2022/07/15 12:54:48;;;;;;;2.60;0.98;;;29.50;99.90;;;;;;5085525;28;20096;-73
2022/07/15 12:57:23;;;;;;;1.77;1.27;;;29.50;99.90;;;;;;5096984;28;20081;-73
2022/07/15 13:00:00;;;;;;;1.23;1.10;;;29.70;99.90;;;;;;5091668;28;20012;-73
2022/07/15 13:02:28;;;;;;;3.80;0.88;;;29.80;99.90;;;;;;5075937;28;20025;-74
2022/07/15 13:04:54;;;;;;;3.65;0.90;;;29.80;99.90;;;;;;5073827;28;20028;-74